sensor_id;sensor_type;location;lat;lon;timestamp;P1;durP1;ratioP1;P2;durP2;ratioP2
65658;SDS011;60181;53.258;6.932;2023-09-19T00:03:57;9.80;;;2.10;;
65658;SDS011;60181;53.258;6.932;2023-09-19T00:08:17;9.30;;;2.30;;
65658;SDS011;60181;53.258;6.932;2023-09-19T00:12:37;9.30;;;2.30;;
65658;SDS011;60181;53.258;6.932;2023-09-19T00:16:57;11.30;;;2.30;;
65658;SDS011;60181;53.258;6.932;2023-09-19T00:21:17;11.30;;;2.30;;
65658;SDS011;60181;53.258;6.932;2023-09-19T00:25:37;14.30;;;2.10;;
65658;SDS011;60181;53.258;6.932;2023-09-19T00:29:57;14.30;;;2.10;;
65658;SDS011;60181;53.258;6.932;2023-09-19T00:34:17;14.30;;;2.10;;
65658;SDS011;60181;53.258;6.932;2023-09-19T00:38:37;11.10;;;2.30;;
65658;SDS011;60181;53.258;6.932;2023-09-19T00:42:58;11.10;;;2.30;;
65658;SDS011;60181;53.258;6.932;2023-09-19T00:47:17;10.10;;;2.00;;
65658;SDS011;60181;53.258;6.932;2023-09-19T00:51:37;10.10;;;2.00;;
65658;SDS011;60181;53.258;6.932;2023-09-19T00:55:57;11.60;;;2.00;;
65658;SDS011;60181;53.258;6.932;2023-09-19T01:00:18;11.60;;;2.00;;
65658;SDS011;60181;53.258;6.932;2023-09-19T01:04:37;11.60;;;2.00;;
65658;SDS011;60181;53.258;6.932;2023-09-19T01:08:57;11.50;;;2.20;;
65658;SDS011;60181;53.258;6.932;2023-09-19T01:17:48;11.70;;;2.10;;
65658;SDS011;60181;53.258;6.932;2023-09-19T01:22:00;11.70;;;2.10;;
65658;SDS011;60181;53.258;6.932;2023-09-19T01:26:18;18.00;;;2.10;;
65658;SDS011;60181;53.258;6.932;2023-09-19T01:30:39;18.00;;;2.10;;
65658;SDS011;60181;53.258;6.932;2023-09-19T01:34:57;11.30;;;1.80;;
65658;SDS011;60181;53.258;6.932;2023-09-19T01:39:17;11.30;;;1.80;;
65658;SDS011;60181;53.258;6.932;2023-09-19T01:43:38;11.30;;;1.80;;
65658;SDS011;60181;53.258;6.932;2023-09-19T01:47:59;9.80;;;2.10;;
65658;SDS011;60181;53.258;6.932;2023-09-19T01:52:17;9.80;;;2.10;;
65658;SDS011;60181;53.258;6.932;2023-09-19T01:56:39;9.70;;;1.90;;
65658;SDS011;60181;53.258;6.932;2023-09-19T02:00:58;9.70;;;1.90;;
65658;SDS011;60181;53.258;6.932;2023-09-19T02:05:26;13.70;;;2.50;;
65658;SDS011;60181;53.258;6.932;2023-09-19T02:09:37;13.70;;;2.50;;
65658;SDS011;60181;53.258;6.932;2023-09-19T02:13:57;13.70;;;2.50;;
65658;SDS011;60181;53.258;6.932;2023-09-19T02:18:17;11.70;;;2.10;;
65658;SDS011;60181;53.258;6.932;2023-09-19T02:22:37;11.70;;;2.10;;
65658;SDS011;60181;53.258;6.932;2023-09-19T02:26:57;13.80;;;2.50;;
65658;SDS011;60181;53.258;6.932;2023-09-19T02:31:17;13.80;;;2.50;;
65658;SDS011;60181;53.258;6.932;2023-09-19T02:35:37;14.60;;;2.40;;
65658;SDS011;60181;53.258;6.932;2023-09-19T02:39:57;14.60;;;2.40;;
65658;SDS011;60181;53.258;6.932;2023-09-19T02:44:17;14.60;;;2.40;;
65658;SDS011;60181;53.258;6.932;2023-09-19T02:48:37;12.00;;;2.20;;
65658;SDS011;60181;53.258;6.932;2023-09-19T02:52:57;12.00;;;2.20;;
65658;SDS011;60181;53.258;6.932;2023-09-19T02:57:17;10.00;;;2.10;;
65658;SDS011;60181;53.258;6.932;2023-09-19T03:01:37;10.00;;;2.10;;
65658;SDS011;60181;53.258;6.932;2023-09-19T03:05:57;8.70;;;1.90;;
65658;SDS011;60181;53.258;6.932;2023-09-19T03:10:18;8.70;;;1.90;;
65658;SDS011;60181;53.258;6.932;2023-09-19T03:14:37;8.70;;;1.90;;
65658;SDS011;60181;53.258;6.932;2023-09-19T03:18:57;10.20;;;1.80;;
65658;SDS011;60181;53.258;6.932;2023-09-19T03:23:17;10.20;;;1.80;;
65658;SDS011;60181;53.258;6.932;2023-09-19T03:27:38;13.50;;;2.40;;
65658;SDS011;60181;53.258;6.932;2023-09-19T03:31:57;13.50;;;2.40;;
65658;SDS011;60181;53.258;6.932;2023-09-19T03:36:17;8.30;;;1.80;;
65658;SDS011;60181;53.258;6.932;2023-09-19T03:40:37;8.30;;;1.80;;
65658;SDS011;60181;53.258;6.932;2023-09-19T03:44:57;10.00;;;2.10;;
65658;SDS011;60181;53.258;6.932;2023-09-19T03:49:17;10.00;;;2.10;;
65658;SDS011;60181;53.258;6.932;2023-09-19T03:53:37;10.00;;;2.10;;
65658;SDS011;60181;53.258;6.932;2023-09-19T03:57:57;10.80;;;2.20;;
65658;SDS011;60181;53.258;6.932;2023-09-19T04:02:17;10.80;;;2.20;;
65658;SDS011;60181;53.258;6.932;2023-09-19T04:06:37;12.20;;;2.10;;
65658;SDS011;60181;53.258;6.932;2023-09-19T04:10:57;12.20;;;2.10;;
65658;SDS011;60181;53.258;6.932;2023-09-19T04:15:17;12.70;;;2.30;;
65658;SDS011;60181;53.258;6.932;2023-09-19T04:19:37;12.70;;;2.30;;
65658;SDS011;60181;53.258;6.932;2023-09-19T04:23:57;12.70;;;2.30;;
65658;SDS011;60181;53.258;6.932;2023-09-19T04:28:17;10.80;;;2.20;;
65658;SDS011;60181;53.258;6.932;2023-09-19T04:32:38;10.80;;;2.20;;
65658;SDS011;60181;53.258;6.932;2023-09-19T04:36:57;7.80;;;2.00;;
65658;SDS011;60181;53.258;6.932;2023-09-19T04:41:17;7.80;;;2.00;;
65658;SDS011;60181;53.258;6.932;2023-09-19T04:45:38;8.80;;;2.20;;
65658;SDS011;60181;53.258;6.932;2023-09-19T04:49:57;8.80;;;2.20;;
65658;SDS011;60181;53.258;6.932;2023-09-19T04:54:17;8.80;;;2.20;;
65658;SDS011;60181;53.258;6.932;2023-09-19T04:58:37;9.00;;;2.10;;
65658;SDS011;60181;53.258;6.932;2023-09-19T05:02:57;9.00;;;2.10;;
65658;SDS011;60181;53.258;6.932;2023-09-19T05:07:17;11.00;;;2.20;;
65658;SDS011;60181;53.258;6.932;2023-09-19T05:11:37;11.00;;;2.20;;
65658;SDS011;60181;53.258;6.932;2023-09-19T05:15:59;8.00;;;2.10;;
65658;SDS011;60181;53.258;6.932;2023-09-19T05:20:17;8.00;;;2.10;;
65658;SDS011;60181;53.258;6.932;2023-09-19T05:24:37;8.00;;;2.10;;
65658;SDS011;60181;53.258;6.932;2023-09-19T05:28:57;8.00;;;2.10;;
65658;SDS011;60181;53.258;6.932;2023-09-19T05:33:17;8.00;;;2.10;;
65658;SDS011;60181;53.258;6.932;2023-09-19T05:37:37;12.90;;;2.20;;
65658;SDS011;60181;53.258;6.932;2023-09-19T05:41:57;12.90;;;2.20;;
65658;SDS011;60181;53.258;6.932;2023-09-19T05:46:17;10.90;;;2.50;;
65658;SDS011;60181;53.258;6.932;2023-09-19T05:50:37;10.90;;;2.50;;
65658;SDS011;60181;53.258;6.932;2023-09-19T05:54:57;15.50;;;2.70;;
65658;SDS011;60181;53.258;6.932;2023-09-19T05:59:17;15.50;;;2.70;;
65658;SDS011;60181;53.258;6.932;2023-09-19T06:03:37;15.50;;;2.70;;
65658;SDS011;60181;53.258;6.932;2023-09-19T06:07:57;8.30;;;2.00;;
65658;SDS011;60181;53.258;6.932;2023-09-19T06:12:17;8.30;;;2.00;;
65658;SDS011;60181;53.258;6.932;2023-09-19T06:16:37;7.50;;;1.80;;
65658;SDS011;60181;53.258;6.932;2023-09-19T06:20:57;7.50;;;1.80;;
65658;SDS011;60181;53.258;6.932;2023-09-19T06:25:17;8.10;;;2.20;;
65658;SDS011;60181;53.258;6.932;2023-09-19T06:29:37;8.10;;;2.20;;
65658;SDS011;60181;53.258;6.932;2023-09-19T06:33:57;8.10;;;2.20;;
65658;SDS011;60181;53.258;6.932;2023-09-19T06:38:17;10.20;;;2.20;;
65658;SDS011;60181;53.258;6.932;2023-09-19T06:42:37;10.20;;;2.20;;
65658;SDS011;60181;53.258;6.932;2023-09-19T06:46:57;10.60;;;2.10;;
65658;SDS011;60181;53.258;6.932;2023-09-19T06:51:17;10.60;;;2.10;;
65658;SDS011;60181;53.258;6.932;2023-09-19T06:55:37;12.60;;;2.30;;
65658;SDS011;60181;53.258;6.932;2023-09-19T06:59:57;12.60;;;2.30;;
65658;SDS011;60181;53.258;6.932;2023-09-19T07:04:17;12.60;;;2.30;;
65658;SDS011;60181;53.258;6.932;2023-09-19T07:08:37;13.40;;;2.70;;
65658;SDS011;60181;53.258;6.932;2023-09-19T07:12:57;13.40;;;2.70;;
65658;SDS011;60181;53.258;6.932;2023-09-19T07:17:17;15.30;;;2.50;;
65658;SDS011;60181;53.258;6.932;2023-09-19T07:21:37;15.30;;;2.50;;
65658;SDS011;60181;53.258;6.932;2023-09-19T07:25:57;11.60;;;2.40;;
65658;SDS011;60181;53.258;6.932;2023-09-19T07:30:17;11.60;;;2.40;;
65658;SDS011;60181;53.258;6.932;2023-09-19T07:34:37;11.60;;;2.40;;
65658;SDS011;60181;53.258;6.932;2023-09-19T07:38:57;15.40;;;2.70;;
65658;SDS011;60181;53.258;6.932;2023-09-19T07:43:17;15.40;;;2.70;;
65658;SDS011;60181;53.258;6.932;2023-09-19T07:47:37;11.20;;;2.20;;
65658;SDS011;60181;53.258;6.932;2023-09-19T07:51:57;11.20;;;2.20;;
65658;SDS011;60181;53.258;6.932;2023-09-19T07:56:17;10.10;;;2.10;;
65658;SDS011;60181;53.258;6.932;2023-09-19T08:00:37;10.10;;;2.10;;
65658;SDS011;60181;53.258;6.932;2023-09-19T08:04:57;11.30;;;3.00;;
65658;SDS011;60181;53.258;6.932;2023-09-19T08:09:17;11.30;;;3.00;;
65658;SDS011;60181;53.258;6.932;2023-09-19T08:13:37;11.30;;;3.00;;
65658;SDS011;60181;53.258;6.932;2023-09-19T08:17:57;18.60;;;3.10;;
65658;SDS011;60181;53.258;6.932;2023-09-19T08:22:17;18.60;;;3.10;;
65658;SDS011;60181;53.258;6.932;2023-09-19T08:26:37;13.80;;;4.00;;
65658;SDS011;60181;53.258;6.932;2023-09-19T08:31:00;13.80;;;4.00;;
65658;SDS011;60181;53.258;6.932;2023-09-19T08:35:17;13.00;;;4.80;;
65658;SDS011;60181;53.258;6.932;2023-09-19T08:39:37;13.00;;;4.80;;
65658;SDS011;60181;53.258;6.932;2023-09-19T08:44:00;13.00;;;4.80;;
65658;SDS011;60181;53.258;6.932;2023-09-19T08:52:39;11.30;;;4.50;;
65658;SDS011;60181;53.258;6.932;2023-09-19T08:56:57;13.20;;;5.30;;
65658;SDS011;60181;53.258;6.932;2023-09-19T09:01:17;13.20;;;5.30;;
65658;SDS011;60181;53.258;6.932;2023-09-19T09:05:37;15.90;;;5.70;;
65658;SDS011;60181;53.258;6.932;2023-09-19T09:09:57;15.90;;;5.70;;
65658;SDS011;60181;53.258;6.932;2023-09-19T09:14:17;15.90;;;5.70;;
65658;SDS011;60181;53.258;6.932;2023-09-19T09:18:37;16.30;;;5.80;;
65658;SDS011;60181;53.258;6.932;2023-09-19T09:22:57;16.30;;;5.80;;
65658;SDS011;60181;53.258;6.932;2023-09-19T09:27:17;16.40;;;5.80;;
65658;SDS011;60181;53.258;6.932;2023-09-19T09:31:37;16.40;;;5.80;;
65658;SDS011;60181;53.258;6.932;2023-09-19T09:36:00;14.70;;;5.80;;
65658;SDS011;60181;53.258;6.932;2023-09-19T09:40:17;14.70;;;5.80;;
65658;SDS011;60181;53.258;6.932;2023-09-19T09:44:37;14.70;;;5.80;;
65658;SDS011;60181;53.258;6.932;2023-09-19T09:48:58;13.10;;;5.90;;
65658;SDS011;60181;53.258;6.932;2023-09-19T09:53:20;13.10;;;5.90;;
65658;SDS011;60181;53.258;6.932;2023-09-19T09:57:37;14.20;;;5.80;;
65658;SDS011;60181;53.258;6.932;2023-09-19T10:01:57;14.20;;;5.80;;
65658;SDS011;60181;53.258;6.932;2023-09-19T10:06:17;11.80;;;5.80;;
65658;SDS011;60181;53.258;6.932;2023-09-19T10:10:38;11.80;;;5.80;;
65658;SDS011;60181;53.258;6.932;2023-09-19T10:14:57;13.90;;;6.20;;
65658;SDS011;60181;53.258;6.932;2023-09-19T10:23:37;13.90;;;6.20;;
65658;SDS011;60181;53.258;6.932;2023-09-19T10:27:57;12.90;;;6.20;;
65658;SDS011;60181;53.258;6.932;2023-09-19T10:32:17;12.90;;;6.20;;
65658;SDS011;60181;53.258;6.932;2023-09-19T10:36:37;12.90;;;5.90;;
65658;SDS011;60181;53.258;6.932;2023-09-19T10:40:57;12.90;;;5.90;;
65658;SDS011;60181;53.258;6.932;2023-09-19T10:45:17;13.10;;;6.10;;
65658;SDS011;60181;53.258;6.932;2023-09-19T10:49:43;13.10;;;6.10;;
65658;SDS011;60181;53.258;6.932;2023-09-19T10:54:01;13.10;;;6.10;;
65658;SDS011;60181;53.258;6.932;2023-09-19T10:58:26;13.20;;;5.70;;
65658;SDS011;60181;53.258;6.932;2023-09-19T11:02:37;13.20;;;5.70;;
65658;SDS011;60181;53.258;6.932;2023-09-19T11:06:59;16.10;;;5.60;;
65658;SDS011;60181;53.258;6.932;2023-09-19T11:28:36;13.40;;;5.60;;
65658;SDS011;60181;53.258;6.932;2023-09-19T11:41:37;13.20;;;5.50;;
65658;SDS011;60181;53.258;6.932;2023-09-19T11:50:19;12.80;;;5.90;;
65658;SDS011;60181;53.258;6.932;2023-09-19T11:54:36;12.80;;;5.90;;
65658;SDS011;60181;53.258;6.932;2023-09-19T11:58:57;13.40;;;5.50;;
65658;SDS011;60181;53.258;6.932;2023-09-19T12:03:16;13.40;;;5.50;;
65658;SDS011;60181;53.258;6.932;2023-09-19T12:07:42;12.30;;;5.60;;
65658;SDS011;60181;53.258;6.932;2023-09-19T12:11:56;12.30;;;5.60;;
65658;SDS011;60181;53.258;6.932;2023-09-19T12:16:17;12.00;;;5.40;;
65658;SDS011;60181;53.258;6.932;2023-09-19T12:20:45;12.00;;;5.40;;
65658;SDS011;60181;53.258;6.932;2023-09-19T12:25:05;12.00;;;5.30;;
65658;SDS011;60181;53.258;6.932;2023-09-19T12:29:17;12.00;;;5.30;;
65658;SDS011;60181;53.258;6.932;2023-09-19T12:33:36;12.00;;;5.30;;
65658;SDS011;60181;53.258;6.932;2023-09-19T12:37:56;12.70;;;5.30;;
65658;SDS011;60181;53.258;6.932;2023-09-19T12:42:17;12.70;;;5.30;;
65658;SDS011;60181;53.258;6.932;2023-09-19T12:46:36;14.50;;;5.30;;
65658;SDS011;60181;53.258;6.932;2023-09-19T12:51:03;14.50;;;5.30;;
65658;SDS011;60181;53.258;6.932;2023-09-19T12:55:20;11.00;;;4.80;;
65658;SDS011;60181;53.258;6.932;2023-09-19T12:59:36;11.00;;;4.80;;
65658;SDS011;60181;53.258;6.932;2023-09-19T13:08:26;16.00;;;5.30;;
65658;SDS011;60181;53.258;6.932;2023-09-19T13:12:37;16.00;;;5.30;;
65658;SDS011;60181;53.258;6.932;2023-09-19T13:17:08;11.40;;;5.10;;
65658;SDS011;60181;53.258;6.932;2023-09-19T13:21:17;11.40;;;5.10;;
65658;SDS011;60181;53.258;6.932;2023-09-19T13:25:37;12.80;;;5.10;;
65658;SDS011;60181;53.258;6.932;2023-09-19T13:29:56;12.80;;;5.10;;
65658;SDS011;60181;53.258;6.932;2023-09-19T13:34:16;12.80;;;5.10;;
65658;SDS011;60181;53.258;6.932;2023-09-19T13:38:36;11.50;;;5.20;;
65658;SDS011;60181;53.258;6.932;2023-09-19T13:42:56;11.50;;;5.20;;
65658;SDS011;60181;53.258;6.932;2023-09-19T13:47:16;10.60;;;5.10;;
65658;SDS011;60181;53.258;6.932;2023-09-19T13:51:36;10.60;;;5.10;;
65658;SDS011;60181;53.258;6.932;2023-09-19T13:55:56;12.20;;;5.30;;
65658;SDS011;60181;53.258;6.932;2023-09-19T14:00:16;12.20;;;5.30;;
65658;SDS011;60181;53.258;6.932;2023-09-19T14:04:36;12.20;;;5.30;;
65658;SDS011;60181;53.258;6.932;2023-09-19T14:08:56;12.40;;;5.00;;
65658;SDS011;60181;53.258;6.932;2023-09-19T14:13:16;12.40;;;5.00;;
65658;SDS011;60181;53.258;6.932;2023-09-19T14:17:37;12.90;;;5.20;;
65658;SDS011;60181;53.258;6.932;2023-09-19T14:21:56;12.90;;;5.20;;
65658;SDS011;60181;53.258;6.932;2023-09-19T14:26:16;12.50;;;5.20;;
65658;SDS011;60181;53.258;6.932;2023-09-19T14:30:36;12.50;;;5.20;;
65658;SDS011;60181;53.258;6.932;2023-09-19T14:34:56;11.50;;;5.10;;
65658;SDS011;60181;53.258;6.932;2023-09-19T14:39:16;11.50;;;5.10;;
65658;SDS011;60181;53.258;6.932;2023-09-19T14:43:36;11.50;;;5.10;;
65658;SDS011;60181;53.258;6.932;2023-09-19T14:47:56;13.90;;;5.30;;
65658;SDS011;60181;53.258;6.932;2023-09-19T14:52:16;13.90;;;5.30;;
65658;SDS011;60181;53.258;6.932;2023-09-19T14:56:36;12.90;;;5.80;;
65658;SDS011;60181;53.258;6.932;2023-09-19T15:01:03;12.90;;;5.80;;
65658;SDS011;60181;53.258;6.932;2023-09-19T15:05:16;14.50;;;6.10;;
65658;SDS011;60181;53.258;6.932;2023-09-19T15:09:36;14.50;;;6.10;;
65658;SDS011;60181;53.258;6.932;2023-09-19T15:13:56;14.50;;;6.10;;
65658;SDS011;60181;53.258;6.932;2023-09-19T15:18:16;12.80;;;5.90;;
65658;SDS011;60181;53.258;6.932;2023-09-19T15:22:36;12.80;;;5.90;;
65658;SDS011;60181;53.258;6.932;2023-09-19T15:26:56;12.60;;;5.50;;
65658;SDS011;60181;53.258;6.932;2023-09-19T15:31:16;12.60;;;5.50;;
65658;SDS011;60181;53.258;6.932;2023-09-19T15:35:36;14.40;;;5.60;;
65658;SDS011;60181;53.258;6.932;2023-09-19T15:39:56;14.40;;;5.60;;
65658;SDS011;60181;53.258;6.932;2023-09-19T15:44:17;14.40;;;5.60;;
65658;SDS011;60181;53.258;6.932;2023-09-19T15:48:36;12.80;;;5.50;;
65658;SDS011;60181;53.258;6.932;2023-09-19T15:52:56;12.80;;;5.50;;
65658;SDS011;60181;53.258;6.932;2023-09-19T15:57:16;14.90;;;5.60;;
65658;SDS011;60181;53.258;6.932;2023-09-19T16:01:37;14.90;;;5.60;;
65658;SDS011;60181;53.258;6.932;2023-09-19T16:05:56;13.00;;;5.40;;
65658;SDS011;60181;53.258;6.932;2023-09-19T16:10:16;13.00;;;5.40;;
65658;SDS011;60181;53.258;6.932;2023-09-19T16:14:36;13.00;;;5.40;;
65658;SDS011;60181;53.258;6.932;2023-09-19T16:18:57;10.50;;;4.80;;
65658;SDS011;60181;53.258;6.932;2023-09-19T16:23:16;10.50;;;4.80;;
65658;SDS011;60181;53.258;6.932;2023-09-19T16:27:36;10.50;;;4.50;;
65658;SDS011;60181;53.258;6.932;2023-09-19T16:31:56;10.50;;;4.50;;
65658;SDS011;60181;53.258;6.932;2023-09-19T16:36:17;9.90;;;4.30;;
65658;SDS011;60181;53.258;6.932;2023-09-19T16:40:36;9.90;;;4.30;;
65658;SDS011;60181;53.258;6.932;2023-09-19T16:44:56;10.40;;;4.40;;
65658;SDS011;60181;53.258;6.932;2023-09-19T16:49:16;10.40;;;4.40;;
65658;SDS011;60181;53.258;6.932;2023-09-19T16:53:37;10.40;;;4.40;;
65658;SDS011;60181;53.258;6.932;2023-09-19T16:57:58;11.40;;;4.00;;
65658;SDS011;60181;53.258;6.932;2023-09-19T17:02:16;11.40;;;4.00;;
65658;SDS011;60181;53.258;6.932;2023-09-19T17:06:36;13.00;;;4.20;;
65658;SDS011;60181;53.258;6.932;2023-09-19T17:11:14;13.00;;;4.20;;
65658;SDS011;60181;53.258;6.932;2023-09-19T17:15:16;10.60;;;4.10;;
65658;SDS011;60181;53.258;6.932;2023-09-19T17:19:36;10.60;;;4.10;;
65658;SDS011;60181;53.258;6.932;2023-09-19T17:23:56;10.60;;;4.10;;
65658;SDS011;60181;53.258;6.932;2023-09-19T17:28:16;9.30;;;3.80;;
65658;SDS011;60181;53.258;6.932;2023-09-19T17:32:36;9.30;;;3.80;;
65658;SDS011;60181;53.258;6.932;2023-09-19T17:36:56;6.60;;;3.60;;
65658;SDS011;60181;53.258;6.932;2023-09-19T17:41:16;6.60;;;3.60;;
65658;SDS011;60181;53.258;6.932;2023-09-19T17:45:36;9.10;;;3.60;;
65658;SDS011;60181;53.258;6.932;2023-09-19T17:49:56;9.10;;;3.60;;
65658;SDS011;60181;53.258;6.932;2023-09-19T17:54:16;9.10;;;3.60;;
65658;SDS011;60181;53.258;6.932;2023-09-19T17:58:39;7.30;;;3.30;;
65658;SDS011;60181;53.258;6.932;2023-09-19T18:02:56;7.30;;;3.30;;
65658;SDS011;60181;53.258;6.932;2023-09-19T18:07:16;6.30;;;3.20;;
65658;SDS011;60181;53.258;6.932;2023-09-19T18:11:36;6.30;;;3.20;;
65658;SDS011;60181;53.258;6.932;2023-09-19T18:15:56;7.10;;;3.30;;
65658;SDS011;60181;53.258;6.932;2023-09-19T18:20:16;7.10;;;3.30;;
65658;SDS011;60181;53.258;6.932;2023-09-19T18:24:36;7.10;;;3.30;;
65658;SDS011;60181;53.258;6.932;2023-09-19T18:28:56;6.20;;;3.30;;
65658;SDS011;60181;53.258;6.932;2023-09-19T18:33:16;6.20;;;3.30;;
65658;SDS011;60181;53.258;6.932;2023-09-19T18:37:36;7.60;;;3.20;;
65658;SDS011;60181;53.258;6.932;2023-09-19T18:41:56;7.60;;;3.20;;
65658;SDS011;60181;53.258;6.932;2023-09-19T18:46:16;6.90;;;3.20;;
65658;SDS011;60181;53.258;6.932;2023-09-19T18:50:36;6.90;;;3.20;;
65658;SDS011;60181;53.258;6.932;2023-09-19T18:54:56;7.90;;;3.50;;
65658;SDS011;60181;53.258;6.932;2023-09-19T18:59:16;7.90;;;3.50;;
65658;SDS011;60181;53.258;6.932;2023-09-19T19:03:36;7.90;;;3.50;;
65658;SDS011;60181;53.258;6.932;2023-09-19T19:07:56;6.40;;;3.00;;
65658;SDS011;60181;53.258;6.932;2023-09-19T19:12:16;6.40;;;3.00;;
65658;SDS011;60181;53.258;6.932;2023-09-19T19:16:36;6.90;;;3.10;;
65658;SDS011;60181;53.258;6.932;2023-09-19T19:20:57;6.90;;;3.10;;
65658;SDS011;60181;53.258;6.932;2023-09-19T19:25:16;6.50;;;3.40;;
65658;SDS011;60181;53.258;6.932;2023-09-19T19:29:36;6.50;;;3.40;;
65658;SDS011;60181;53.258;6.932;2023-09-19T19:33:56;6.50;;;3.40;;
65658;SDS011;60181;53.258;6.932;2023-09-19T19:38:16;7.70;;;3.30;;
65658;SDS011;60181;53.258;6.932;2023-09-19T19:42:36;7.70;;;3.30;;
65658;SDS011;60181;53.258;6.932;2023-09-19T19:46:56;6.20;;;3.20;;
65658;SDS011;60181;53.258;6.932;2023-09-19T19:51:16;6.20;;;3.20;;
65658;SDS011;60181;53.258;6.932;2023-09-19T19:55:36;7.70;;;3.10;;
65658;SDS011;60181;53.258;6.932;2023-09-19T19:59:56;7.70;;;3.10;;
65658;SDS011;60181;53.258;6.932;2023-09-19T20:04:16;7.70;;;3.10;;
65658;SDS011;60181;53.258;6.932;2023-09-19T20:08:36;10.10;;;3.50;;
65658;SDS011;60181;53.258;6.932;2023-09-19T20:12:56;10.10;;;3.50;;
65658;SDS011;60181;53.258;6.932;2023-09-19T20:17:16;12.50;;;3.30;;
65658;SDS011;60181;53.258;6.932;2023-09-19T20:21:36;12.50;;;3.30;;
65658;SDS011;60181;53.258;6.932;2023-09-19T20:26:00;9.10;;;3.00;;
65658;SDS011;60181;53.258;6.932;2023-09-19T20:30:16;9.10;;;3.00;;
65658;SDS011;60181;53.258;6.932;2023-09-19T20:34:36;9.10;;;3.00;;
65658;SDS011;60181;53.258;6.932;2023-09-19T20:38:56;10.30;;;3.30;;
65658;SDS011;60181;53.258;6.932;2023-09-19T20:43:16;10.30;;;3.30;;
65658;SDS011;60181;53.258;6.932;2023-09-19T20:47:36;8.30;;;2.90;;
65658;SDS011;60181;53.258;6.932;2023-09-19T20:51:56;8.30;;;2.90;;
65658;SDS011;60181;53.258;6.932;2023-09-19T20:56:16;9.70;;;3.40;;
65658;SDS011;60181;53.258;6.932;2023-09-19T21:00:39;9.70;;;3.40;;
65658;SDS011;60181;53.258;6.932;2023-09-19T21:04:56;6.90;;;3.50;;
65658;SDS011;60181;53.258;6.932;2023-09-19T21:09:16;6.90;;;3.50;;
65658;SDS011;60181;53.258;6.932;2023-09-19T21:13:36;6.90;;;3.50;;
65658;SDS011;60181;53.258;6.932;2023-09-19T21:17:56;12.10;;;3.70;;
65658;SDS011;60181;53.258;6.932;2023-09-19T21:22:16;12.10;;;3.70;;
65658;SDS011;60181;53.258;6.932;2023-09-19T21:26:36;10.60;;;3.50;;
65658;SDS011;60181;53.258;6.932;2023-09-19T21:30:56;10.60;;;3.50;;
65658;SDS011;60181;53.258;6.932;2023-09-19T21:35:16;10.60;;;3.50;;
65658;SDS011;60181;53.258;6.932;2023-09-19T21:39:36;10.60;;;3.50;;
65658;SDS011;60181;53.258;6.932;2023-09-19T21:43:56;10.60;;;3.50;;
65658;SDS011;60181;53.258;6.932;2023-09-19T21:48:16;10.90;;;3.60;;
65658;SDS011;60181;53.258;6.932;2023-09-19T21:52:36;10.90;;;3.60;;
65658;SDS011;60181;53.258;6.932;2023-09-19T21:56:56;9.80;;;3.50;;
65658;SDS011;60181;53.258;6.932;2023-09-19T22:01:16;9.80;;;3.50;;
65658;SDS011;60181;53.258;6.932;2023-09-19T22:05:36;9.70;;;3.40;;
65658;SDS011;60181;53.258;6.932;2023-09-19T22:09:56;9.70;;;3.40;;
65658;SDS011;60181;53.258;6.932;2023-09-19T22:14:16;9.70;;;3.40;;
65658;SDS011;60181;53.258;6.932;2023-09-19T22:18:36;10.00;;;3.60;;
65658;SDS011;60181;53.258;6.932;2023-09-19T22:22:56;10.00;;;3.60;;
65658;SDS011;60181;53.258;6.932;2023-09-19T22:27:16;11.90;;;3.50;;
65658;SDS011;60181;53.258;6.932;2023-09-19T22:31:36;11.90;;;3.50;;
65658;SDS011;60181;53.258;6.932;2023-09-19T22:35:56;12.70;;;3.60;;
65658;SDS011;60181;53.258;6.932;2023-09-19T22:40:16;12.70;;;3.60;;
65658;SDS011;60181;53.258;6.932;2023-09-19T22:44:36;12.70;;;3.60;;
65658;SDS011;60181;53.258;6.932;2023-09-19T22:48:56;10.00;;;3.70;;
65658;SDS011;60181;53.258;6.932;2023-09-19T22:53:16;10.00;;;3.70;;
65658;SDS011;60181;53.258;6.932;2023-09-19T22:57:35;11.90;;;3.90;;
65658;SDS011;60181;53.258;6.932;2023-09-19T23:01:56;11.90;;;3.90;;
65658;SDS011;60181;53.258;6.932;2023-09-19T23:06:16;8.20;;;3.60;;
65658;SDS011;60181;53.258;6.932;2023-09-19T23:10:42;8.20;;;3.60;;
65658;SDS011;60181;53.258;6.932;2023-09-19T23:14:55;10.00;;;3.60;;
65658;SDS011;60181;53.258;6.932;2023-09-19T23:19:15;10.00;;;3.60;;
65658;SDS011;60181;53.258;6.932;2023-09-19T23:23:35;10.00;;;3.60;;
65658;SDS011;60181;53.258;6.932;2023-09-19T23:27:55;13.50;;;3.70;;
65658;SDS011;60181;53.258;6.932;2023-09-19T23:32:16;13.50;;;3.70;;
65658;SDS011;60181;53.258;6.932;2023-09-19T23:36:35;11.30;;;3.80;;
65658;SDS011;60181;53.258;6.932;2023-09-19T23:40:56;11.30;;;3.80;;
65658;SDS011;60181;53.258;6.932;2023-09-19T23:45:16;12.50;;;3.90;;
65658;SDS011;60181;53.258;6.932;2023-09-19T23:49:35;12.50;;;3.90;;
65658;SDS011;60181;53.258;6.932;2023-09-19T23:53:55;12.50;;;3.90;;
65658;SDS011;60181;53.258;6.932;2023-09-19T23:58:15;9.70;;;3.50;;
